.
WxDataArchive / Data Records for 2010-02-11
2010-02-10 February 2010 2010-02-12

Data Records for Thursday, 11 February 2010

Time	Temp	Chill	HIndex	Humid	Dewpt	 Wind 	HiWind	WindDir	Rain 	Barom 
-----	----	-----	------	-----	-----	------	------	-------	-----	----- 
00:00	28.4	28.4	28.4	73	20.9	2	7	270	0.00	30.051 
00:05	28.4	28.4	28.4	73	20.9	2	4	315	0.00	30.051 
00:10	28.4	28.4	28.4	73	20.9	3	9	315	0.00	30.051 
00:15	28.4	28.4	28.4	73	20.9	3	10	270	0.00	30.050 
00:20	28.2	28.2	28.2	73	20.7	2	6	338	0.00	30.050 
00:25	28.2	28.2	28.2	73	20.7	2	6	315	0.00	30.050 
00:30	28.1	28.1	28.1	73	20.6	2	7	270	0.00	30.054 
00:35	28.1	28.1	28.1	73	20.6	2	5	315	0.00	30.054 
00:40	28.1	28.1	28.1	74	20.9	2	5	315	0.00	30.054 
00:45	27.9	27.9	27.9	74	20.7	1	4	338	0.00	30.055 
00:50	27.9	27.9	27.9	74	20.7	1	2	270	0.00	30.055 
00:55	27.9	27.9	27.9	74	20.7	1	4	338	0.00	30.055 
01:00	27.9	27.9	27.9	74	20.7	1	3	338	0.00	30.054 
01:05	27.8	27.8	27.8	74	20.6	1	4	338	0.00	30.054 
01:10	27.8	27.8	27.8	74	20.6	1	5	338	0.00	30.054 
01:15	27.9	27.9	27.9	74	20.7	1	4	315	0.00	30.051 
01:20	27.9	27.9	27.9	74	20.7	1	4	0	0.00	30.051 
01:25	27.8	27.8	27.8	74	20.6	1	3	248	0.00	30.051 
01:30	27.8	27.8	27.8	74	20.6	1	3	315	0.00	30.049 
01:35	27.8	27.8	27.8	73	20.3	1	4	315	0.00	30.049 
01:40	27.8	27.8	27.8	73	20.3	2	7	338	0.00	30.049 
01:45	27.9	27.9	27.9	73	20.4	2	7	292	0.00	30.050 
01:50	27.9	27.9	27.9	73	20.4	2	7	338	0.00	30.050 
01:55	27.9	27.9	27.9	73	20.4	1	5	338	0.00	30.050 
02:00	27.9	27.9	27.9	73	20.4	1	6	338	0.00	30.055 
02:05	27.9	27.9	27.9	73	20.4	1	4	292	0.00	30.055 
02:10	27.8	27.8	27.8	73	20.3	1	5	270	0.00	30.055 
02:15	27.8	27.8	27.8	73	20.3	1	4	270	0.00	30.060 
02:20	27.8	27.8	27.8	73	20.3	1	5	270	0.00	30.060 
02:25	27.8	27.8	27.8	73	20.3	1	4	315	0.00	30.060 
02:30	27.8	27.8	27.8	73	20.3	2	4	338	0.00	30.064 
02:35	27.9	27.9	27.9	73	20.4	1	2	338	0.00	30.064 
02:40	27.9	27.9	27.9	73	20.4	1	3	315	0.00	30.064 
02:45	27.9	27.9	27.9	72	20.1	2	5	270	0.00	30.065 
02:50	27.9	27.9	27.9	72	20.1	1	3	338	0.00	30.065 
02:55	27.9	27.9	27.9	73	20.4	1	3	270	0.00	30.065 
03:00	27.8	27.8	27.8	72	20.0	1	4	270	0.00	30.065 
03:05	27.8	27.8	27.8	72	20.0	1	9	270	0.00	30.065 
03:10	27.8	27.8	27.8	72	20.0	1	4	315	0.00	30.065 
03:15	27.8	27.8	27.8	72	20.0	1	3	248	0.00	30.064 
03:20	27.8	27.8	27.8	72	20.0	1	3	248	0.00	30.064 
03:25	27.8	27.8	27.8	72	20.0	0	2	338	0.00	30.064 
03:30	27.8	27.8	27.8	72	20.0	1	3	338	0.00	30.063 
03:35	27.8	27.8	27.8	72	20.0	0	2	338	0.00	30.063 
03:40	27.8	27.8	27.8	73	20.3	0	2	338	0.00	30.063 
03:45	27.8	27.8	27.8	73	20.3	0	2	315	0.00	30.062 
03:50	27.6	27.6	27.6	73	20.1	0	2	315	0.00	30.062 
03:55	27.6	27.6	27.6	74	20.4	1	3	338	0.00	30.062 
04:00	27.5	27.5	27.5	77	21.3	1	3	248	0.00	30.061 
04:05	27.0	27.0	27.0	78	21.1	1	5	248	0.00	30.061 
04:10	26.9	26.9	26.9	79	21.3	1	4	248	0.00	30.061 
04:15	26.6	26.6	26.6	80	21.3	1	4	248	0.00	30.062 
04:20	26.4	26.4	26.4	80	21.1	1	3	248	0.00	30.062 
04:25	26.3	26.3	26.3	81	21.3	1	2	248	0.00	30.062 
04:30	26.3	26.3	26.3	81	21.3	1	3	248	0.00	30.063 
04:35	26.1	26.1	26.1	81	21.1	1	4	248	0.00	30.063 
04:40	26.1	26.1	26.1	81	21.1	1	3	270	0.00	30.063 
04:45	26.0	26.0	26.0	81	21.0	2	7	270	0.00	30.066 
04:50	25.6	25.6	25.6	81	20.6	3	6	248	0.00	30.066 
04:55	25.1	25.1	25.1	81	20.1	2	6	248	0.00	30.066 
05:00	24.8	24.8	24.8	81	19.8	2	5	248	0.00	30.070 
05:05	24.5	24.5	24.5	81	19.5	2	6	225	0.00	30.070 
05:10	24.4	24.4	24.4	81	19.4	2	6	225	0.00	30.070 
05:15	24.2	24.2	24.2	82	19.5	1	4	248	0.00	30.073 
05:20	24.1	24.1	24.1	82	19.4	2	4	248	0.00	30.073 
05:25	23.9	23.9	23.9	82	19.2	3	6	270	0.00	30.073 
05:30	23.9	23.9	23.9	82	19.2	1	4	248	0.00	30.078 
05:35	23.9	23.9	23.9	82	19.2	1	3	270	0.00	30.078 
05:40	23.8	23.8	23.8	82	19.1	2	3	270	0.00	30.078 
05:45	23.8	23.8	23.8	82	19.1	2	3	270	0.00	30.080 
05:50	23.8	23.8	23.8	82	19.1	2	4	270	0.00	30.080 
05:55	23.8	23.8	23.8	82	19.1	2	5	225	0.00	30.080 
06:00	23.8	23.8	23.8	82	19.1	2	3	225	0.00	30.080 
06:05	23.8	23.8	23.8	81	18.8	2	4	248	0.00	30.080 
06:10	23.8	23.8	23.8	81	18.8	1	4	248	0.00	30.080 
06:15	23.8	23.8	23.8	82	19.1	2	4	248	0.00	30.078 
06:20	23.8	23.8	23.8	82	19.1	2	4	270	0.00	30.078 
06:25	23.8	23.8	23.8	82	19.1	1	3	315	0.00	30.078 
06:30	23.8	23.8	23.8	82	19.1	1	3	315	0.00	30.072 
06:35	23.8	23.8	23.8	82	19.1	1	3	270	0.00	30.072 
06:40	23.8	23.8	23.8	82	19.1	1	3	270	0.00	30.072 
06:45	23.8	23.8	23.8	82	19.1	1	3	270	0.00	30.079 
06:50	23.8	23.8	23.8	82	19.1	1	3	270	0.00	30.079 
06:55	23.8	23.8	23.8	82	19.1	1	2	248	0.00	30.079 
07:00	23.8	23.8	23.8	82	19.1	2	5	248	0.00	30.085 
07:05	23.8	23.8	23.8	82	19.1	1	4	248	0.00	30.085 
07:10	23.8	23.8	23.8	82	19.1	1	2	248	0.00	30.085 
07:15	23.8	23.8	23.8	82	19.1	1	3	292	0.00	30.089 
07:20	23.8	23.8	23.8	82	19.1	1	2	292	0.00	30.089 
07:25	23.8	23.8	23.8	82	19.1	1	3	248	0.00	30.089 
07:30	23.8	23.8	23.8	82	19.1	2	5	248	0.00	30.093 
07:35	23.8	23.8	23.8	82	19.1	1	2	248	0.00	30.093 
07:40	23.8	23.8	23.8	82	19.1	1	2	315	0.00	30.093 
07:45	23.8	23.8	23.8	82	19.1	1	3	315	0.00	30.093 
07:50	23.8	23.8	23.8	83	19.4	1	2	315	0.00	30.093 
07:55	23.8	23.8	23.8	83	19.4	1	3	315	0.00	30.093 
08:00	23.8	23.8	23.8	83	19.4	0	1	315	0.00	30.098 
08:05	23.8	23.8	23.8	83	19.4	1	3	315	0.00	30.098 
08:10	23.8	23.8	23.8	83	19.4	0	2	315	0.00	30.098 
08:15	23.8	23.8	23.8	83	19.4	0	1	315	0.00	30.099 
08:20	23.9	23.9	23.9	83	19.5	1	2	225	0.00	30.099 
08:25	23.9	23.9	23.9	83	19.5	1	2	225	0.00	30.099 
08:30	23.9	23.9	23.9	83	19.5	1	3	270	0.00	30.107 
08:35	23.9	23.9	23.9	83	19.5	1	2	270	0.00	30.107 
08:40	23.9	23.9	23.9	83	19.5	1	2	270	0.00	30.107 
08:45	24.1	24.1	24.1	83	19.7	1	3	270	0.00	30.110 
08:50	24.1	24.1	24.1	82	19.4	1	2	248	0.00	30.110 
08:55	24.1	24.1	24.1	82	19.4	1	2	248	0.00	30.110 
09:00	24.1	24.1	24.1	82	19.4	1	2	248	0.00	30.112 
09:05	24.1	24.1	24.1	82	19.4	1	4	248	0.00	30.112 
09:10	24.1	24.1	24.1	82	19.4	1	2	248	0.00	30.112 
09:15	24.1	24.1	24.1	82	19.4	1	3	270	0.00	30.110 
09:20	24.1	24.1	24.1	82	19.4	1	2	270	0.00	30.110 
09:25	24.1	24.1	24.1	82	19.4	1	4	248	0.00	30.110 
09:30	24.1	24.1	24.1	82	19.4	1	2	248	0.00	30.111 
09:35	24.1	24.1	24.1	82	19.4	1	2	248	0.00	30.111 
09:40	24.2	24.2	24.2	81	19.2	1	3	248	0.00	30.111 
09:45	24.1	24.1	24.1	81	19.1	1	5	248	0.00	30.114 
09:50	24.1	24.1	24.1	81	19.1	1	3	248	0.00	30.114 
09:55	24.1	24.1	24.1	81	19.1	2	5	270	0.00	30.114 
10:00	24.1	24.1	24.1	81	19.1	1	3	248	0.00	30.120 
10:05	24.2	24.2	24.2	81	19.2	1	3	248	0.00	30.120 
10:10	24.2	24.2	24.2	80	18.9	2	5	248	0.00	30.120 
10:15	24.2	24.2	24.2	80	18.9	1	3	248	0.00	30.127 
10:20	24.1	24.1	24.1	80	18.8	2	6	248	0.00	30.127 
10:25	24.2	24.2	24.2	80	18.9	1	7	248	0.00	30.127 
10:30	24.1	24.1	24.1	79	18.5	2	4	248	0.00	30.126 
10:35	24.2	24.2	24.2	80	18.9	1	5	248	0.00	30.126 
10:40	24.2	24.2	24.2	79	18.6	2	3	248	0.00	30.126 
10:45	24.2	24.2	24.2	79	18.6	2	4	270	0.00	30.128 
10:50	24.4	24.4	24.4	79	18.8	2	4	248	0.00	30.128 
10:55	24.4	24.4	24.4	78	18.5	2	4	270	0.00	30.128 
11:00	24.5	24.5	24.5	78	18.6	2	6	248	0.00	30.119 
11:05	24.7	24.7	24.7	78	18.8	1	3	248	0.00	30.119 
11:10	24.8	24.8	24.8	77	18.6	2	4	248	0.00	30.119 
11:15	24.7	24.7	24.7	77	18.5	2	3	270	0.00	30.118 
11:20	24.7	24.7	24.7	77	18.5	1	4	248	0.00	30.118 
11:25	25.0	25.0	25.0	77	18.8	1	3	248	0.00	30.118 
11:30	25.3	25.3	25.3	76	18.8	1	3	248	0.00	30.116 
11:35	25.4	25.4	25.4	75	18.6	1	4	248	0.00	30.116 
11:40	25.4	25.4	25.4	75	18.6	1	3	225	0.00	30.116 
11:45	25.4	25.4	25.4	75	18.6	2	4	248	0.00	30.114 
11:50	25.6	25.6	25.6	75	18.8	2	4	248	0.00	30.114 
11:55	25.8	25.8	25.8	74	18.7	1	3	248	0.00	30.114 
12:00	26.0	26.0	26.0	73	18.6	1	3	248	0.00	30.110 
12:05	26.1	26.1	26.1	73	18.7	2	3	270	0.00	30.110 
12:10	26.1	26.1	26.1	73	18.7	2	5	248	0.00	30.110 
12:15	26.0	26.0	26.0	73	18.6	2	5	248	0.00	30.105 
12:20	26.0	26.0	26.0	73	18.6	1	3	315	0.00	30.105 
12:25	26.1	26.1	26.1	73	18.7	2	5	248	0.00	30.105 
12:30	26.1	26.1	26.1	73	18.7	1	6	225	0.00	30.100 
12:35	26.3	26.3	26.3	73	18.8	2	5	248	0.00	30.100 
12:40	26.4	26.4	26.4	73	18.9	2	4	248	0.00	30.100 
12:45	26.3	26.3	26.3	72	18.5	1	3	270	0.00	30.102 
12:50	26.1	26.1	26.1	72	18.3	2	5	270	0.00	30.102 
12:55	26.0	26.0	26.0	72	18.2	2	4	248	0.00	30.102 
13:00	25.8	25.8	25.8	73	18.4	2	4	248	0.00	30.097 
13:05	25.8	25.8	25.8	72	18.0	2	5	248	0.00	30.097 
13:10	25.6	25.6	25.6	72	17.8	2	7	248	0.01	30.097 
13:15	25.6	25.6	25.6	72	17.8	1	3	248	0.00	30.094 
13:20	25.7	25.7	25.7	73	18.3	1	3	270	0.00	30.094 
13:25	25.7	25.7	25.7	72	17.9	1	3	270	0.00	30.094 
13:30	25.8	25.8	25.8	72	18.0	2	4	270	0.00	30.088 
13:35	26.0	26.0	26.0	72	18.2	1	4	248	0.00	30.088 
13:40	26.1	26.1	26.1	72	18.3	1	3	270	0.00	30.088 
13:45	26.1	26.1	26.1	71	18.0	2	4	248	0.00	30.081 
13:50	26.3	26.3	26.3	71	18.2	2	4	248	0.00	30.081 
13:55	26.3	26.3	26.3	71	18.2	1	4	270	0.00	30.081 
14:00	26.6	26.6	26.6	70	18.2	1	4	225	0.00	30.080 
14:05	26.7	26.7	26.7	70	18.3	2	4	225	0.00	30.080 
14:10	27.5	27.5	27.5	70	19.0	1	3	270	0.00	30.080 
14:15	28.2	28.2	28.2	68	19.0	2	6	248	0.00	30.071 
14:20	28.4	28.4	28.4	67	18.9	1	4	338	0.00	30.071 
14:25	28.8	28.8	28.8	66	18.9	2	4	338	0.00	30.071 
14:30	29.1	29.1	29.1	66	19.2	2	3	248	0.00	30.063 
14:35	29.4	29.4	29.4	65	19.1	2	5	270	0.00	30.063 
14:40	29.4	29.4	29.4	65	19.1	2	6	248	0.00	30.063 
14:45	29.7	29.7	29.7	64	19.0	2	5	248	0.00	30.062 
14:50	30.0	30.0	30.0	64	19.3	2	6	248	0.00	30.062 
14:55	30.3	30.3	30.3	63	19.2	2	5	248	0.00	30.062 
15:00	30.4	30.4	30.4	63	19.3	2	5	270	0.00	30.060 
15:05	30.0	30.0	30.0	63	19.0	1	4	270	0.00	30.060 
15:10	29.4	29.4	29.4	64	18.8	3	7	270	0.00	30.060 
15:15	29.0	29.0	29.0	65	18.7	1	3	248	0.00	30.060 
15:20	28.8	28.8	28.8	66	18.9	1	4	248	0.00	30.060 
15:25	29.0	29.0	29.0	67	19.4	1	3	248	0.00	30.060 
15:30	29.0	29.0	29.0	66	19.1	1	4	270	0.00	30.061 
15:35	28.7	28.7	28.7	66	18.8	2	4	270	0.00	30.061 
15:40	28.7	28.7	28.7	67	19.2	1	3	248	0.00	30.061 
15:45	28.7	28.7	28.7	67	19.2	1	4	270	0.00	30.061 
15:50	28.7	28.7	28.7	67	19.2	1	3	292	0.00	30.061 
15:55	28.7	28.7	28.7	67	19.2	1	3	292	0.00	30.061 
16:00	28.4	28.4	28.4	65	18.2	1	3	292	0.00	30.060 
16:05	28.4	28.4	28.4	66	18.5	1	3	292	0.00	30.060 
16:10	28.4	28.4	28.4	66	18.5	1	3	248	0.00	30.060 
16:15	28.2	28.2	28.2	66	18.3	2	4	270	0.00	30.066 
16:20	28.1	28.1	28.1	67	18.6	1	5	248	0.00	30.066 
16:25	27.9	27.9	27.9	67	18.4	1	4	270	0.00	30.066 
16:30	27.8	27.8	27.8	68	18.6	2	3	270	0.00	30.066 
16:35	27.5	27.5	27.5	68	18.3	1	3	270	0.00	30.066 
16:40	27.3	27.3	27.3	68	18.2	1	3	270	0.00	30.066 
16:45	27.2	27.2	27.2	69	18.4	1	3	270	0.00	30.066 
16:50	27.0	27.0	27.0	69	18.2	1	3	225	0.00	30.066 
16:55	27.0	27.0	27.0	69	18.2	1	3	270	0.00	30.066 
17:00	26.9	26.9	26.9	69	18.1	1	4	270	0.00	30.064 
17:05	26.9	26.9	26.9	70	18.4	1	3	248	0.00	30.064 
17:10	26.9	26.9	26.9	70	18.4	1	2	248	0.00	30.064 
17:15	26.9	26.9	26.9	70	18.4	0	2	248	0.00	30.062 
17:20	26.9	26.9	26.9	70	18.4	1	5	270	0.00	30.062 
17:25	26.7	26.7	26.7	70	18.3	1	3	315	0.00	30.062 
17:30	26.7	26.7	26.7	70	18.3	1	3	248	0.00	30.062 
17:35	26.7	26.7	26.7	70	18.3	0	2	248	0.00	30.062 
17:40	26.7	26.7	26.7	69	17.9	1	2	248	0.00	30.062 
17:45	26.7	26.7	26.7	69	17.9	1	4	292	0.00	30.062 
17:50	26.9	26.9	26.9	68	17.8	1	3	248	0.00	30.062 
17:55	26.9	26.9	26.9	68	17.8	0	2	248	0.00	30.062 
18:00	26.9	26.9	26.9	69	18.1	0	3	248	0.00	30.061 
18:05	26.7	26.7	26.7	68	17.6	1	3	270	0.00	30.061 
18:10	26.7	26.7	26.7	68	17.6	1	2	270	0.00	30.061 
18:15	26.7	26.7	26.7	68	17.6	1	3	270	0.00	30.058 
18:20	26.7	26.7	26.7	68	17.6	0	2	270	0.00	30.058 
18:25	26.6	26.6	26.6	69	17.8	0	3	270	0.00	30.058 
18:30	26.6	26.6	26.6	69	17.8	1	3	248	0.00	30.057 
18:35	26.6	26.6	26.6	68	17.5	0	2	248	0.00	30.057 
18:40	26.6	26.6	26.6	68	17.5	1	2	248	0.00	30.057 
18:45	26.6	26.6	26.6	68	17.5	1	3	248	0.00	30.063 
18:50	26.6	26.6	26.6	67	17.1	1	6	248	0.00	30.063 
18:55	26.4	26.4	26.4	67	17.0	0	2	248	0.00	30.063 
19:00	26.4	26.4	26.4	67	17.0	1	3	270	0.00	30.068 
19:05	26.4	26.4	26.4	67	17.0	1	3	248	0.00	30.068 
19:10	26.4	26.4	26.4	67	17.0	1	3	248	0.00	30.068 
19:15	26.4	26.4	26.4	67	17.0	1	3	248	0.00	30.071 
19:20	26.3	26.3	26.3	67	16.9	1	3	248	0.00	30.071 
19:25	26.3	26.3	26.3	67	16.9	1	4	248	0.00	30.071 
19:30	26.3	26.3	26.3	67	16.9	1	3	248	0.00	30.079 
19:35	26.3	26.3	26.3	67	16.9	0	2	248	0.00	30.079 
19:40	26.1	26.1	26.1	67	16.7	0	1	248	0.00	30.079 
19:45	26.1	26.1	26.1	68	17.0	0	2	248	0.00	30.080 
19:50	26.1	26.1	26.1	68	17.0	1	3	248	0.00	30.080 
19:55	26.0	26.0	26.0	68	16.9	1	3	248	0.00	30.080 
20:00	26.0	26.0	26.0	68	16.9	0	2	248	0.00	30.084 
20:05	26.0	26.0	26.0	69	17.2	1	3	248	0.00	30.084 
20:10	25.7	25.7	25.7	70	17.3	0	3	248	0.00	30.084 
20:15	25.6	25.6	25.6	71	17.5	0	2	248	0.00	30.085 
20:20	25.3	25.3	25.3	72	17.6	0	2	248	0.00	30.085 
20:25	25.1	25.1	25.1	72	17.4	1	4	270	0.00	30.085 
20:30	25.0	25.0	25.0	72	17.3	1	3	270	0.00	30.095 
20:35	25.0	25.0	25.0	72	17.3	1	3	270	0.00	30.095 
20:40	24.8	24.8	24.8	73	17.4	1	3	248	0.00	30.095 
20:45	24.7	24.7	24.7	72	17.0	1	2	270	0.00	30.102 
20:50	24.5	24.5	24.5	72	16.8	1	3	270	0.00	30.102 
20:55	24.4	24.4	24.4	72	16.7	2	3	270	0.00	30.102 
21:00	24.1	24.1	24.1	72	16.4	1	3	270	0.00	30.103 
21:05	23.9	23.9	23.9	73	16.5	1	3	270	0.00	30.103 
21:10	23.8	23.8	23.8	73	16.4	1	3	270	0.00	30.103 
21:15	23.6	23.6	23.6	73	16.2	0	2	270	0.00	30.106 
21:20	23.5	23.5	23.5	73	16.1	1	2	248	0.00	30.106 
21:25	23.5	23.5	23.5	73	16.1	1	3	248	0.00	30.106 
21:30	23.3	23.3	23.3	73	15.9	1	3	248	0.00	30.114 
21:35	23.3	23.3	23.3	73	15.9	1	3	248	0.00	30.114 
21:40	23.2	23.2	23.2	73	15.9	1	3	248	0.00	30.114 
21:45	23.2	23.2	23.2	73	15.9	1	3	248	0.00	30.116 
21:50	23.0	23.0	23.0	73	15.7	1	3	248	0.00	30.116 
21:55	23.0	23.0	23.0	73	15.7	1	3	248	0.00	30.116 
22:00	23.0	23.0	23.0	73	15.7	1	2	248	0.00	30.111 
22:05	22.9	22.9	22.9	73	15.6	1	2	248	0.00	30.111 
22:10	22.9	22.9	22.9	74	15.9	0	2	248	0.00	30.111 
22:15	22.9	22.9	22.9	74	15.9	1	2	248	0.00	30.105 
22:20	22.9	22.9	22.9	74	15.9	0	2	248	0.00	30.105 
22:25	22.9	22.9	22.9	74	15.9	1	2	248	0.00	30.105 
22:30	22.9	22.9	22.9	74	15.9	1	4	248	0.00	30.103 
22:35	23.0	23.0	23.0	73	15.7	0	2	248	0.00	30.103 
22:40	23.0	23.0	23.0	73	15.7	1	3	248	0.00	30.103 
22:45	23.0	23.0	23.0	74	16.0	1	3	248	0.00	30.104 
22:50	23.0	23.0	23.0	73	15.7	1	4	248	0.00	30.104 
22:55	23.0	23.0	23.0	73	15.7	0	2	248	0.00	30.104 
23:00	23.0	23.0	23.0	73	15.7	0	2	248	0.00	30.101 
23:05	23.0	23.0	23.0	73	15.7	1	3	248	0.00	30.101 
23:10	23.0	23.0	23.0	74	16.0	0	2	248	0.00	30.101 
23:15	23.0	23.0	23.0	74	16.0	1	3	248	0.00	30.101 
23:20	23.0	23.0	23.0	74	16.0	1	3	248	0.00	30.101 
23:25	23.0	23.0	23.0	74	16.0	1	2	248	0.00	30.101 
23:30	23.0	23.0	23.0	74	16.0	0	2	248	0.00	30.101 
23:35	23.0	23.0	23.0	74	16.0	1	3	270	0.00	30.101 
23:40	23.0	23.0	23.0	74	16.0	1	4	248	0.00	30.101 
23:45	22.9	22.9	22.9	74	15.9	1	4	248	0.00	30.104 
23:50	22.9	22.9	22.9	74	15.9	0	2	248	0.00	30.104 
23:55	22.9	22.9	22.9	74	15.9	1	5	248	0.00	30.104 

CoCoRaHS
IN-AL-39
A2 Web Hosting
Creative Commons License
GoDaddy
search engine by freefind advanced

loaded 2018-11-15 18:26:08 • last modified 2010-11-18 10:43:29
Privacy PolicyDisclaimer
• wx.awcolley.com is powered by PmWiki v.2002016 •
• all content (unless otherwise noted) © 2018 A W Colley